Time;durP1;ratioP1;P1;durP2;ratioP2;P2;SDS_P1;SDS_P2;PMS_P1;PMS_P2;Temp;Humidity;BMP_temperature;BMP_pressure;BME280_temperature;BME280_humidity;BME280_pressure;Samples;Min_cycle;Max_cycle;Signal;HPM_P1;HPM_P2
2022/11/23 00:00:28;;;;;;;0.30;0.30;;;;;;;8.45;77.87;99142.13;5140822;28;20034;-88
2022/11/23 00:02:59;;;;;;;1.52;1.42;;;;;;;8.43;78.03;99149.19;5127384;28;20053;-89
2022/11/23 00:05:30;;;;;;;0.22;0.22;;;;;;;8.43;78.03;99146.56;5163532;28;20025;-88
2022/11/23 00:08:00;;;;;;;0.40;0.40;;;;;;;8.47;77.93;99139.47;5166550;28;20039;-87
2022/11/23 00:10:31;;;;;;;0.25;0.25;;;;;;;8.47;77.99;99152.53;5163952;28;20578;-87
2022/11/23 00:13:01;;;;;;;0.20;0.20;;;;;;;8.47;77.63;99148.16;5187251;28;20061;-89
2022/11/23 00:15:32;;;;;;;0.30;0.30;;;;;;;8.49;77.55;99156.78;5177663;28;20034;-87
2022/11/23 00:18:03;;;;;;;0.30;0.30;;;;;;;8.47;78.28;99156.00;5182104;28;20052;-88
2022/11/23 00:20:33;;;;;;;0.38;0.38;;;;;;;8.49;78.22;99158.56;5162648;28;20049;-89
2022/11/23 00:23:04;;;;;;;0.43;0.43;;;;;;;8.50;78.16;99165.50;5170911;28;20097;-88
2022/11/23 00:25:34;;;;;;;0.30;0.30;;;;;;;8.50;77.77;99165.50;5154308;28;20334;-89
2022/11/23 00:28:05;;;;;;;4.85;1.30;;;;;;;8.48;78.08;99162.91;5132939;28;20030;-89
2022/11/23 00:30:35;;;;;;;0.32;0.32;;;;;;;8.49;78.24;99169.84;5134069;28;20191;-88
2022/11/23 00:33:05;;;;;;;0.30;0.30;;;;;;;8.51;77.99;99161.97;5150586;28;20037;-88
2022/11/23 00:35:36;;;;;;;0.47;0.47;;;;;;;8.53;77.93;99170.56;5148986;28;20121;-89
2022/11/23 00:38:06;;;;;;;0.38;0.38;;;;;;;8.47;77.89;99171.69;5159172;28;20044;-89
2022/11/23 00:40:37;;;;;;;0.50;0.50;;;;;;;8.53;77.80;99165.34;5142992;28;20046;-89
2022/11/23 00:43:07;;;;;;;0.30;0.30;;;;;;;8.54;77.51;99160.97;5146691;28;20052;-88
2022/11/23 00:45:38;;;;;;;0.30;0.30;;;;;;;8.56;77.87;99169.56;5181476;28;20034;-87
2022/11/23 00:48:09;;;;;;;0.35;0.35;;;;;;;8.54;77.94;99166.19;5127365;28;20512;-88
2022/11/23 00:50:39;;;;;;;0.30;0.30;;;;;;;8.54;77.83;99171.44;5178312;28;20038;-88
2022/11/23 00:53:10;;;;;;;0.30;0.30;;;;;;;8.47;78.09;99174.28;5160456;28;20676;-88
2022/11/23 00:55:40;;;;;;;0.30;0.30;;;;;;;8.50;78.12;99181.16;5153373;28;20045;-89
2022/11/23 00:58:11;;;;;;;0.30;0.30;;;;;;;8.51;77.87;99177.66;5166069;28;20034;-89
2022/11/23 01:00:41;;;;;;;0.40;0.40;;;;;;;8.54;77.20;99176.66;5172845;28;20038;-88
2022/11/23 01:03:12;;;;;;;6.47;0.75;;;;;;;8.58;76.92;99183.44;5115333;28;20038;-88
2022/11/23 01:05:42;;;;;;;0.30;0.30;;;;;;;8.60;77.21;99185.06;5136320;28;20436;-87
2022/11/23 01:08:13;;;;;;;0.30;0.30;;;;;;;8.60;76.88;99187.69;5171551;28;20037;-88
2022/11/23 01:10:43;;;;;;;0.30;0.30;;;;;;;8.61;77.08;99193.78;5154458;28;20042;-88
2022/11/23 01:13:13;;;;;;;0.50;0.50;;;;;;;8.58;77.40;99193.91;5142741;28;20054;-89
2022/11/23 01:15:50;;;;;;;0.30;0.30;;;;;;;8.56;77.21;99195.72;5180079;28;20454;-88
2022/11/23 01:18:22;;;;;;;0.30;0.30;;;;;;;8.60;77.04;99198.13;5135417;28;20136;-89
2022/11/23 01:20:52;;;;;;;0.30;0.30;;;;;;;8.57;77.00;99207.88;5129679;28;20034;-88
2022/11/23 01:23:23;;;;;;;0.43;0.43;;;;;;;8.65;77.08;99205.78;5163452;28;20034;-89
2022/11/23 01:25:53;;;;;;;1.13;0.95;;;;;;;8.64;77.15;99202.31;5160543;28;20294;-87
2022/11/23 01:28:24;;;;;;;0.30;0.30;;;;;;;8.59;77.05;99212.16;5162307;28;20027;-87
2022/11/23 01:30:54;;;;;;;0.60;0.60;;;;;;;8.61;77.03;99212.06;5163233;28;20385;-88
2022/11/23 01:33:25;;;;;;;0.20;0.20;;;;;;;8.62;77.34;99213.78;5133714;28;20018;-89
2022/11/23 01:35:55;;;;;;;0.30;0.30;;;;;;;8.63;77.15;99207.63;5128561;28;20033;-87
2022/11/23 01:38:26;;;;;;;0.45;0.45;;;;;;;8.59;77.10;99213.91;5148866;28;20536;-88
2022/11/23 01:40:56;;;;;;;0.30;0.30;;;;;;;8.54;77.12;99208.03;5126736;28;20034;-89
2022/11/23 01:43:26;;;;;;;0.20;0.20;;;;;;;8.57;77.07;99219.19;5157177;28;20061;-88
2022/11/23 01:46:01;;;;;;;0.30;0.30;;;;;;;8.57;77.26;99213.09;5160312;28;20038;-88
2022/11/23 01:48:31;;;;;;;0.30;0.30;;;;;;;8.54;77.11;99208.03;5145995;28;20057;-89
2022/11/23 01:51:05;;;;;;;0.50;0.50;;;;;;;8.58;76.95;99214.81;5153349;28;20031;-89
2022/11/23 01:53:36;;;;;;;;;;;;;;;8.60;76.98;99215.59;5179134;28;20583;-89
2022/11/23 01:56:09;;;;;;;0.30;0.30;;;;;;;8.56;77.72;99216.63;5160408;28;19953;-89
2022/11/23 01:58:43;;;;;;;0.30;0.30;;;;;;;8.56;77.33;99207.03;5132402;28;20075;-88
2022/11/23 02:01:14;;;;;;;0.20;0.20;;;;;;;8.60;76.96;99213.81;5142309;28;20549;-88
2022/11/23 02:03:47;;;;;;;0.47;0.47;;;;;;;8.61;76.90;99220.75;5148525;28;20041;-89
2022/11/23 02:06:20;;;;;;;0.40;0.40;;;;;;;8.60;77.15;99226.91;5127098;28;20601;-88
2022/11/23 02:08:52;;;;;;;0.30;0.30;;;;;;;8.60;77.21;99224.28;5142262;28;20026;-87
2022/11/23 02:11:22;;;;;;;6.88;2.10;;;;;;;8.59;77.18;99222.59;5145110;28;20062;-87
2022/11/23 02:13:55;;;;;;;0.50;0.50;;;;;;;8.56;77.21;99222.72;5158492;28;20132;-86
2022/11/23 02:16:26;;;;;;;0.35;0.35;;;;;;;8.59;77.45;99222.59;5143837;28;20034;-87
2022/11/23 02:18:56;;;;;;;0.45;0.45;;;;;;;8.59;77.52;99220.00;5170002;28;20038;-87
2022/11/23 02:21:27;;;;;;;0.30;0.30;;;;;;;8.61;77.51;99225.16;5165261;28;20534;-87
2022/11/23 02:24:11;;;;;;;0.30;0.30;;;;;;;8.65;77.22;99226.69;5155458;28;20031;-88
2022/11/23 02:26:43;;;;;;;0.38;0.38;;;;;;;8.69;77.13;99228.28;5165917;28;20048;-88
2022/11/23 02:29:19;;;;;;;0.30;0.30;;;;;;;8.61;77.68;99220.75;5185429;28;20289;-89
2022/11/23 02:31:50;;;;;;;0.32;0.32;;;;;;;8.68;77.14;99229.19;5132025;28;20046;-88
2022/11/23 02:34:21;;;;;;;0.30;0.30;;;;;;;8.69;77.46;99228.28;5130926;28;20738;-89
2022/11/23 02:36:56;;;;;;;0.20;0.20;;;;;;;8.62;76.92;99229.47;5133956;28;20054;-89
2022/11/23 02:39:36;;;;;;;0.30;0.30;;;;;;;8.61;77.37;99225.16;5145798;28;20037;-88
2022/11/23 02:42:07;;;;;;;0.68;0.68;;;;;;;8.71;76.71;99236.06;5145710;28;20033;-90
2022/11/23 02:44:59;;;;;;;1.52;1.42;;;;;;;8.76;76.87;99240.16;5181737;28;20026;-88
2022/11/23 02:47:29;;;;;;;2.10;0.95;;;;;;;8.74;76.50;99236.75;5151672;28;20045;-89
2022/11/23 02:50:00;;;;;;;4.03;1.67;;;;;;;8.71;77.02;99236.91;5149806;28;20216;-88
2022/11/23 02:52:30;;;;;;;1.13;1.13;;;;;;;8.64;76.51;99228.47;5182580;28;20026;-88
2022/11/23 02:55:01;;;;;;;0.50;0.50;;;;;;;8.66;76.83;99229.28;5172418;28;20197;-88
2022/11/23 02:57:31;;;;;;;0.60;0.60;;;;;;;8.68;76.43;99230.97;5150875;28;20053;-89
2022/11/23 03:00:03;;;;;;;3.45;1.90;;;;;;;8.66;76.90;99225.78;5143703;28;20026;-89
2022/11/23 03:02:33;;;;;;;1.27;0.77;;;;;;;8.66;76.83;99228.41;5164753;28;20137;-87
2022/11/23 03:05:04;;;;;;;1.48;1.33;;;;;;;8.71;76.69;99236.06;5135775;28;20121;-88
2022/11/23 03:07:34;;;;;;;1.60;1.50;;;;;;;8.65;76.94;99229.31;5148751;28;20040;-90
2022/11/23 03:10:05;;;;;;;0.35;0.35;;;;;;;8.63;76.51;99239.00;5167590;28;20084;-88
2022/11/23 03:12:36;;;;;;;0.50;0.50;;;;;;;8.70;76.66;99229.97;5165195;28;20038;-89
2022/11/23 03:15:07;;;;;;;1.30;1.30;;;;;;;8.71;76.06;99236.91;5152115;28;20091;-89
2022/11/23 03:17:37;;;;;;;0.30;0.30;;;;;;;8.72;76.16;99230.75;5165965;28;20054;-89
2022/11/23 03:20:08;;;;;;;0.30;0.30;;;;;;;8.68;75.89;99237.03;5149157;28;20030;-89
2022/11/23 03:22:38;;;;;;;0.82;0.82;;;;;;;8.65;76.14;99231.94;5161395;28;20677;-89
2022/11/23 03:25:09;;;;;;;0.30;0.30;;;;;;;8.64;76.16;99235.44;5167742;28;20034;-89
2022/11/23 03:27:40;;;;;;;0.40;0.40;;;;;;;8.72;75.64;99240.38;5134316;28;20101;-88
2022/11/23 03:30:10;;;;;;;1.38;0.65;;;;;;;8.70;76.45;99240.44;5130955;28;20034;-89
2022/11/23 03:32:41;;;;;;;0.50;0.50;;;;;;;8.70;76.32;99247.41;5148513;28;20054;-89
2022/11/23 03:35:11;;;;;;;0.30;0.30;;;;;;;8.79;76.45;99245.28;5134718;28;20037;-88
2022/11/23 03:37:42;;;;;;;0.40;0.40;;;;;;;8.74;75.92;99249.84;5144507;28;20534;-88
2022/11/23 03:40:12;;;;;;;0.40;0.40;;;;;;;8.68;76.38;99244.88;5146911;28;20212;-88
2022/11/23 03:42:43;;;;;;;0.40;0.40;;;;;;;8.68;76.56;99252.72;5161006;28;20282;-88
2022/11/23 03:45:13;;;;;;;0.68;0.68;;;;;;;8.74;76.28;99249.00;5148548;28;20181;-88
2022/11/23 03:47:44;;;;;;;0.50;0.50;;;;;;;8.75;76.63;99254.16;5148650;28;20046;-90
2022/11/23 03:50:14;;;;;;;0.30;0.30;;;;;;;8.74;76.27;99249.84;5148398;28;20034;-88
2022/11/23 03:52:47;;;;;;;0.65;0.65;;;;;;;8.78;75.53;99251.41;5148679;28;20074;-88
2022/11/23 03:55:18;;;;;;;0.20;0.20;;;;;;;8.71;76.25;99252.59;5135093;28;20049;-87
2022/11/23 03:57:48;;;;;;;0.50;0.50;;;;;;;8.76;76.25;99241.94;5146046;28;20046;-88
2022/11/23 04:00:19;;;;;;;0.70;0.70;;;;;;;8.73;76.29;99242.91;5132268;28;20699;-88
2022/11/23 04:02:49;;;;;;;0.55;0.55;;;;;;;8.74;76.22;99249.84;5177868;28;20034;-87
2022/11/23 04:05:21;;;;;;;5.22;0.77;;;;;;;8.78;75.72;99243.56;5163477;28;20033;-89
2022/11/23 04:07:51;;;;;;;0.60;0.60;;;;;;;8.76;76.33;99250.63;5161646;28;20674;-89
2022/11/23 04:10:22;;;;;;;0.93;0.88;;;;;;;8.71;76.37;99252.59;5148549;28;20042;-88
2022/11/23 04:12:52;;;;;;;1.63;1.50;;;;;;;8.77;75.21;99251.47;5162310;28;20133;-87
2022/11/23 04:15:23;;;;;;;0.30;0.30;;;;;;;8.80;75.36;99251.34;5148608;28;20088;-88
2022/11/23 04:17:54;;;;;;;0.47;0.47;;;;;;;8.72;75.08;99251.66;5148564;28;20038;-88
2022/11/23 04:20:24;;;;;;;0.50;0.50;;;;;;;8.70;75.11;99248.28;5134137;28;20026;-89
2022/11/23 04:22:55;;;;;;;0.85;0.63;;;;;;;8.77;75.47;99251.47;5146513;28;20097;-89
2022/11/23 04:25:25;;;;;;;0.52;0.52;;;;;;;8.71;75.64;99250.00;5131161;28;20807;-88
2022/11/23 04:27:56;;;;;;;0.98;0.95;;;;;;;8.70;75.51;99245.66;5147106;28;20054;-88
2022/11/23 04:30:26;;;;;;;0.77;0.77;;;;;;;8.78;75.17;99246.19;5129784;28;20030;-88
2022/11/23 04:32:57;;;;;;;0.30;0.30;;;;;;;8.76;75.72;99248.00;5149705;28;20042;-89
2022/11/23 04:35:27;;;;;;;0.30;0.30;;;;;;;8.77;75.36;99249.72;5166067;28;20032;-88
2022/11/23 04:37:58;;;;;;;0.38;0.38;;;;;;;8.74;75.76;99246.38;5130352;28;20035;-89
2022/11/23 04:40:30;;;;;;;1.30;1.30;;;;;;;8.75;75.37;99246.31;5161778;28;20034;-89
2022/11/23 04:43:01;;;;;;;0.30;0.30;;;;;;;8.70;75.55;99258.75;5180658;28;20044;-89
2022/11/23 04:45:31;;;;;;;0.82;0.82;;;;;;;8.72;75.81;99254.28;5133879;28;20038;-88
2022/11/23 04:48:02;;;;;;;0.30;0.30;;;;;;;8.78;75.69;99253.16;5130095;28;20034;-88
2022/11/23 04:50:34;;;;;;;0.30;0.30;;;;;;;8.78;75.53;99255.78;5159209;28;20100;-88
2022/11/23 04:53:04;;;;;;;0.20;0.20;;;;;;;8.76;75.63;99255.03;5177398;28;20049;-88
2022/11/23 04:55:35;;;;;;;2.17;1.00;;;;;;;8.76;75.78;99255.03;5175105;28;20022;-88
2022/11/23 04:58:05;;;;;;;0.30;0.30;;;;;;;8.78;75.12;99250.56;5177320;28;20466;-88
2022/11/23 05:00:36;;;;;;;0.30;0.30;;;;;;;8.79;75.53;99260.97;5149519;28;20203;-89
2022/11/23 05:03:06;;;;;;;0.82;0.82;;;;;;;8.67;76.33;99251.03;5146875;28;20038;-88
2022/11/23 05:05:38;;;;;;;0.40;0.40;;;;;;;8.70;75.90;99250.91;5135765;28;20509;-88
2022/11/23 05:08:09;;;;;;;0.30;0.30;;;;;;;8.77;75.88;99256.69;5179965;28;20052;-87
2022/11/23 05:10:39;;;;;;;0.20;0.20;;;;;;;8.71;75.86;99252.59;5160155;28;20042;-87
2022/11/23 05:13:10;;;;;;;0.40;0.40;;;;;;;8.72;76.22;99253.44;5130904;28;20045;-89
2022/11/23 05:15:40;;;;;;;0.20;0.20;;;;;;;8.74;76.23;99254.22;5129745;28;20048;-90
2022/11/23 05:18:11;;;;;;;0.60;0.60;;;;;;;8.80;75.51;99246.13;5131052;28;20145;-87
2022/11/23 05:20:41;;;;;;;7.45;1.42;;;;;;;8.74;75.67;99254.22;5131837;28;20040;-88
2022/11/23 05:23:12;;;;;;;0.60;0.60;;;;;;;8.77;75.89;99254.94;5128702;28;20034;-89
2022/11/23 05:25:42;;;;;;;0.75;0.75;;;;;;;8.75;76.02;99248.94;5159565;28;20029;-87
2022/11/23 05:28:18;;;;;;;1.80;1.45;;;;;;;8.76;75.90;99250.63;5129914;28;20086;-87
2022/11/23 05:30:48;;;;;;;0.20;0.20;;;;;;;8.73;76.01;99255.16;5144071;28;20080;-88
2022/11/23 05:33:19;;;;;;;0.40;0.40;;;;;;;8.84;75.56;99254.69;5127675;28;20488;-88
2022/11/23 05:35:49;;;;;;;3.35;1.42;;;;;;;8.71;76.07;99257.84;5163806;28;20006;-87
2022/11/23 05:38:20;;;;;;;0.40;0.40;;;;;;;8.68;76.52;99260.56;5171261;28;20049;-88
2022/11/23 05:40:50;;;;;;;0.32;0.32;;;;;;;8.68;76.38;99255.34;5183106;28;20056;-88
2022/11/23 05:43:21;;;;;;;0.65;0.65;;;;;;;8.72;75.90;99256.91;5161169;28;20030;-88
2022/11/23 05:45:51;;;;;;;0.50;0.50;;;;;;;8.72;76.21;99254.28;5146713;28;20053;-88
2022/11/23 05:48:21;;;;;;;0.60;0.60;;;;;;;8.68;76.11;99260.56;5125704;28;20019;-89
2022/11/23 05:50:53;;;;;;;0.98;0.98;;;;;;;8.64;76.35;99257.25;5144952;28;20109;-88
2022/11/23 05:53:23;;;;;;;0.30;0.30;;;;;;;8.63;76.58;99265.16;5133557;28;20053;-90
2022/11/23 05:55:58;;;;;;;0.40;0.40;;;;;;;8.67;76.52;99266.72;5148151;28;20101;-88
2022/11/23 05:58:28;;;;;;;0.30;0.30;;;;;;;8.67;76.46;99261.47;5159825;28;20038;-88
2022/11/23 06:01:00;;;;;;;0.30;0.30;;;;;;;8.74;76.54;99259.47;5148536;28;20040;-88
2022/11/23 06:03:30;;;;;;;0.50;0.50;;;;;;;8.75;76.36;99259.38;5151578;28;20069;-87
2022/11/23 06:06:00;;;;;;;0.43;0.43;;;;;;;8.75;76.71;99256.78;5147455;28;20124;-89
2022/11/23 06:08:31;;;;;;;1.17;0.82;;;;;;;8.77;76.19;99262.78;5135039;28;20010;-88
2022/11/23 06:11:02;;;;;;;0.43;0.43;;;;;;;8.81;76.36;99260.91;5166070;28;20030;-88
2022/11/23 06:13:32;;;;;;;0.70;0.70;;;;;;;8.81;76.50;99266.97;5143408;28;20026;-85
2022/11/23 06:16:03;;;;;;;0.22;0.22;;;;;;;8.81;76.21;99266.97;5132063;28;20176;-87
2022/11/23 06:18:33;;;;;;;0.65;0.65;;;;;;;8.76;76.56;99263.72;5170860;28;20032;-86
2022/11/23 06:21:04;;;;;;;1.25;1.15;;;;;;;8.69;76.96;99267.50;5135241;28;20038;-86
2022/11/23 06:23:34;;;;;;;0.30;0.30;;;;;;;8.74;77.08;99260.31;5152751;28;20019;-84
2022/11/23 06:26:05;;;;;;;0.30;0.30;;;;;;;8.69;76.75;99264.88;5184302;28;20044;-87
2022/11/23 06:28:35;;;;;;;0.95;0.85;;;;;;;8.73;77.06;99261.22;5137534;28;20073;-92
2022/11/23 06:31:06;;;;;;;2.65;2.15;;;;;;;8.74;76.89;99256.84;5150687;28;20049;-85
2022/11/23 06:33:37;;;;;;;0.30;0.30;;;;;;;8.81;76.75;99263.50;5153368;28;20117;-83
2022/11/23 06:36:09;;;;;;;0.30;0.30;;;;;;;8.84;76.80;99262.53;5150747;28;20042;-85
2022/11/23 06:38:39;;;;;;;0.30;0.30;;;;;;;8.82;76.68;99255.59;5163736;28;20046;-85
2022/11/23 06:41:10;;;;;;;0.35;0.35;;;;;;;8.85;76.47;99256.38;5147567;28;20496;-86
2022/11/23 06:43:40;;;;;;;0.30;0.30;;;;;;;8.85;75.92;99251.97;5165450;28;20034;-86
2022/11/23 06:46:11;;;;;;;0.20;0.20;;;;;;;8.85;76.16;99253.75;5148793;28;20105;-86
2022/11/23 06:48:45;;;;;;;0.50;0.50;;;;;;;8.95;75.74;99255.91;5151057;28;20030;-86
2022/11/23 06:51:16;;;;;;;0.30;0.30;;;;;;;8.89;76.42;99260.53;5136263;28;20156;-84
2022/11/23 06:53:46;;;;;;;0.77;0.77;;;;;;;8.89;75.29;99261.41;5147501;28;20165;-86
2022/11/23 06:56:17;;;;;;;0.30;0.30;;;;;;;8.86;76.16;99265.94;5163273;28;20042;-84
2022/11/23 06:58:47;;;;;;;0.30;0.30;;;;;;;8.82;75.45;99260.81;5146751;28;20863;-86
2022/11/23 07:01:18;;;;;;;2.20;1.15;;;;;;;8.78;75.49;99267.13;5163213;28;20075;-85
2022/11/23 07:03:48;;;;;;;0.30;0.30;;;;;;;8.75;74.64;99267.22;5165865;28;20030;-85
2022/11/23 07:06:18;;;;;;;0.30;0.30;;;;;;;8.79;74.80;99266.19;5143546;28;20042;-85
2022/11/23 07:08:49;;;;;;;0.20;0.20;;;;;;;8.75;75.26;99269.84;5130436;28;20045;-85
2022/11/23 07:11:19;;;;;;;0.47;0.47;;;;;;;8.74;74.39;99272.53;5157224;28;20100;-85
2022/11/23 07:13:50;;;;;;;0.40;0.40;;;;;;;8.66;74.39;99278.94;5164970;28;20030;-85
2022/11/23 07:16:20;;;;;;;0.43;0.43;;;;;;;8.68;74.65;99284.09;5173305;28;20203;-86
2022/11/23 07:18:51;;;;;;;0.30;0.30;;;;;;;8.58;74.55;99278.41;5162547;28;20038;-84
2022/11/23 07:21:21;;;;;;;0.32;0.32;;;;;;;8.75;73.83;99282.94;5149602;28;20053;-85
2022/11/23 07:23:52;;;;;;;0.20;0.20;;;;;;;8.60;73.53;99284.41;5147657;28;20030;-85
2022/11/23 07:26:22;;;;;;;0.43;0.43;;;;;;;8.68;73.23;99289.34;5131116;28;20050;-85
2022/11/23 07:28:53;;;;;;;1.02;1.02;;;;;;;8.66;73.43;99285.94;5161124;28;20050;-85
2022/11/23 07:31:23;;;;;;;0.45;0.45;;;;;;;8.64;72.74;99295.59;5142411;28;20038;-84
2022/11/23 07:33:53;;;;;;;0.28;0.28;;;;;;;8.54;71.71;99299.53;5161510;28;20621;-84
2022/11/23 07:36:24;;;;;;;0.32;0.32;;;;;;;8.46;71.55;99305.91;5144302;28;20031;-84
2022/11/23 07:38:54;;;;;;;0.22;0.22;;;;;;;8.49;72.75;99311.00;5161991;28;20030;-87
2022/11/23 07:41:26;;;;;;;1.30;1.23;;;;;;;8.42;72.44;99312.13;5158933;28;20146;-84
2022/11/23 07:43:56;;;;;;;0.80;0.75;;;;;;;8.38;71.56;99318.41;5131101;28;20069;-86
2022/11/23 07:46:27;;;;;;;0.73;0.73;;;;;;;8.36;71.16;99320.25;5142852;28;20066;-86
2022/11/23 07:49:01;;;;;;;0.30;0.30;;;;;;;8.40;71.96;99315.75;5175327;28;20044;-86
2022/11/23 07:51:32;;;;;;;0.45;0.45;;;;;;;8.34;71.53;99324.66;5144020;28;20042;-85
2022/11/23 07:54:03;;;;;;;0.30;0.30;;;;;;;8.40;72.25;99326.19;5144784;28;20038;-86
2022/11/23 07:56:33;;;;;;;0.50;0.50;;;;;;;8.40;71.70;99334.03;5122367;28;20038;-84
2022/11/23 07:59:04;;;;;;;0.85;0.85;;;;;;;8.46;72.26;99331.16;5159488;28;20092;-86
2022/11/23 08:01:34;;;;;;;0.30;0.30;;;;;;;8.29;72.15;99330.09;5140661;28;20117;-86
2022/11/23 08:04:05;;;;;;;0.30;0.30;;;;;;;8.39;72.84;99335.78;5158701;28;20033;-86
2022/11/23 08:06:35;;;;;;;1.27;1.20;;;;;;;8.36;72.61;99343.75;5143685;28;20041;-85
2022/11/23 08:09:05;;;;;;;0.60;0.60;;;;;;;8.35;72.92;99347.28;5145689;28;20029;-87
2022/11/23 08:11:36;;;;;;;0.30;0.30;;;;;;;8.44;72.93;99344.31;5151570;28;20042;-85
2022/11/23 08:14:06;;;;;;;0.30;0.30;;;;;;;8.40;72.05;99347.94;5139923;28;20065;-87
2022/11/23 08:16:37;;;;;;;0.68;0.57;;;;;;;8.35;71.83;99350.75;5128000;28;20116;-86
2022/11/23 08:19:07;;;;;;;0.60;0.60;;;;;;;8.35;72.29;99355.97;5131247;28;20042;-86
2022/11/23 08:21:38;;;;;;;0.30;0.30;;;;;;;8.32;72.28;99357.84;5140746;28;20535;-87
2022/11/23 08:24:10;;;;;;;0.30;0.30;;;;;;;8.29;71.57;99350.16;5131504;28;20108;-85
2022/11/23 08:26:40;;;;;;;1.02;0.95;;;;;;;8.39;71.85;99356.69;5148760;28;20042;-85
2022/11/23 08:29:11;;;;;;;0.90;0.90;;;;;;;8.30;71.64;99346.63;5146354;28;20031;-85
2022/11/23 08:31:42;;;;;;;0.82;0.82;;;;;;;8.35;71.90;99347.28;5156808;28;20250;-85
2022/11/23 08:34:13;;;;;;;1.25;1.15;;;;;;;8.42;72.20;99350.50;5126385;28;20110;-86
2022/11/23 08:36:44;;;;;;;0.30;0.30;;;;;;;8.42;71.58;99355.75;5142335;28;20539;-85
2022/11/23 08:39:16;;;;;;;1.35;0.70;;;;;;;8.40;71.63;99347.94;5144678;28;20038;-85
2022/11/23 08:41:47;;;;;;;0.60;0.60;;;;;;;8.45;72.15;99355.59;5141777;28;20062;-86
2022/11/23 08:44:17;;;;;;;0.30;0.30;;;;;;;8.46;72.10;99362.53;5125836;28;20444;-86
2022/11/23 08:46:48;;;;;;;0.40;0.40;;;;;;;8.51;72.50;99358.03;5159257;28;20312;-86
2022/11/23 08:49:18;;;;;;;0.98;0.98;;;;;;;8.58;72.12;99366.44;5127409;28;20041;-86
2022/11/23 08:51:49;;;;;;;4.18;0.63;;;;;;;8.54;72.77;99360.50;5123911;28;20049;-86
2022/11/23 08:54:21;;;;;;;0.60;0.60;;;;;;;8.49;72.04;99363.28;5143017;28;20311;-86
2022/11/23 08:56:52;;;;;;;2.90;0.77;;;;;;;8.52;72.30;99370.16;5175939;28;20033;-86
2022/11/23 08:59:22;;;;;;;0.30;0.30;;;;;;;8.56;72.68;99365.66;5142322;28;20573;-85
2022/11/23 09:01:52;;;;;;;0.30;0.30;;;;;;;8.52;72.57;99367.53;5153728;28;20042;-86
2022/11/23 09:04:23;;;;;;;0.40;0.40;;;;;;;8.60;72.23;99369.84;5177510;28;20053;-87
2022/11/23 09:06:53;;;;;;;0.28;0.28;;;;;;;8.59;72.20;99363.78;5142036;28;20057;-85
2022/11/23 09:09:24;;;;;;;1.48;1.02;;;;;;;8.58;72.46;99367.31;5129340;28;20737;-85
2022/11/23 09:11:54;;;;;;;0.52;0.52;;;;;;;8.60;72.58;99364.63;5124461;28;20038;-86
2022/11/23 09:14:26;;;;;;;0.30;0.30;;;;;;;8.64;72.61;99366.19;5140491;28;20551;-86
2022/11/23 09:16:59;;;;;;;1.55;1.10;;;;;;;8.55;72.77;99367.44;5144584;28;20034;-86
2022/11/23 09:19:30;;;;;;;0.50;0.50;;;;;;;8.56;72.53;99373.50;5137070;28;20033;-86
2022/11/23 09:22:00;;;;;;;0.75;0.75;;;;;;;8.57;71.62;99375.19;5128083;28;20034;-87
2022/11/23 09:24:31;;;;;;;0.20;0.20;;;;;;;8.59;72.61;99363.78;5162498;28;20069;-85
2022/11/23 09:27:01;;;;;;;0.88;0.88;;;;;;;8.59;71.70;99379.47;5142300;28;20053;-85
2022/11/23 09:29:32;;;;;;;2.17;0.60;;;;;;;8.63;72.32;99375.81;5126014;28;20025;-87
2022/11/23 09:32:02;;;;;;;0.20;0.20;;;;;;;8.65;71.87;99371.38;5160077;28;20034;-86
2022/11/23 09:34:33;;;;;;;0.40;0.40;;;;;;;8.68;71.63;99373.00;5161511;28;20053;-86
2022/11/23 09:37:03;;;;;;;0.30;0.30;;;;;;;8.64;69.97;99371.41;5181986;28;20031;-87
2022/11/23 09:39:33;;;;;;;0.35;0.35;;;;;;;8.69;70.42;99364.25;5185945;28;20030;-86
2022/11/23 09:42:27;;;;;;;1.23;0.52;;;;;;;8.61;70.69;99372.41;5172293;28;20295;-88
2022/11/23 09:45:07;;;;;;;;;;;;;;;8.61;70.73;99374.19;5143373;28;20041;-85
2022/11/23 09:47:53;;;;;;;0.38;0.38;;;;;;;8.70;71.52;99373.81;5176567;28;20008;-85
2022/11/23 09:50:28;;;;;;;0.30;0.30;;;;;;;8.69;70.52;99372.09;5125374;28;20093;-85
2022/11/23 09:53:06;;;;;;;0.90;0.85;;;;;;;8.74;70.65;99374.53;5146098;28;20524;-86
2022/11/23 09:55:41;;;;;;;0.85;0.85;;;;;;;8.73;68.88;99376.28;5161718;28;20267;-86
2022/11/23 09:58:16;;;;;;;0.60;0.60;;;;;;;8.75;70.50;99373.63;5157875;28;20128;-85
2022/11/23 10:01:10;;;;;;;0.40;0.40;;;;;;;8.76;70.10;99376.16;5156823;28;20529;-87
2022/11/23 10:03:43;;;;;;;0.20;0.20;;;;;;;8.78;69.31;99378.69;5156849;28;20686;-86
2022/11/23 10:06:19;;;;;;;0.47;0.47;;;;;;;8.77;70.61;99383.09;5138116;28;20610;-86
2022/11/23 10:08:59;;;;;;;0.35;0.35;;;;;;;8.79;70.33;99376.03;5159208;28;20033;-86
2022/11/23 10:12:09;;;;;;;0.30;0.30;;;;;;;8.85;69.35;99374.06;5156124;28;20045;-86
2022/11/23 10:15:01;;;;;;;0.30;0.30;;;;;;;8.83;70.45;99366.31;5102804;28;20491;-85
2022/11/23 10:17:57;;;;;;;0.30;0.30;;;;;;;8.95;69.27;99354.47;5158005;28;20089;-86
2022/11/23 10:20:45;;;;;;;0.30;0.30;;;;;;;8.87;70.00;99336.47;5137137;28;20045;-86
2022/11/23 10:23:40;;;;;;;1.35;0.98;;;;;;;8.95;69.95;99334.38;5155736;28;20234;-86
2022/11/23 10:26:14;;;;;;;0.68;0.68;;;;;;;8.99;70.25;99335.09;5159240;28;20033;-86
2022/11/23 10:28:46;;;;;;;0.20;0.20;;;;;;;9.02;69.02;99329.75;5145096;28;20049;-87
2022/11/23 10:31:19;;;;;;;0.57;0.57;;;;;;;9.00;68.69;99331.56;5140371;28;20065;-86
2022/11/23 10:34:14;;;;;;;0.35;0.35;;;;;;;9.04;68.59;99322.69;5160572;28;20035;-86
2022/11/23 10:36:44;;;;;;;0.35;0.35;;;;;;;9.08;67.86;99329.47;5170790;28;20574;-86
2022/11/23 10:39:23;;;;;;;0.57;0.57;;;;;;;9.03;68.08;99312.28;5163855;28;20050;-87
2022/11/23 10:42:00;;;;;;;0.47;0.47;;;;;;;9.07;67.76;99301.59;5145903;28;20054;-86
2022/11/23 10:44:37;;;;;;;0.77;0.77;;;;;;;9.11;67.81;99297.09;5143535;28;20395;-86
2022/11/23 10:47:08;;;;;;;0.57;0.57;;;;;;;9.07;68.07;99295.53;5162785;28;20057;-85
2022/11/23 10:49:56;;;;;;;0.20;0.20;;;;;;;9.12;68.01;99283.97;5131808;28;20050;-86
2022/11/23 10:52:29;;;;;;;2.17;1.02;;;;;;;9.17;68.08;99275.03;5143388;28;20038;-86
2022/11/23 10:55:04;;;;;;;0.40;0.40;;;;;;;9.17;67.65;99280.28;5147632;28;20057;-86
2022/11/23 10:57:44;;;;;;;0.30;0.30;;;;;;;9.22;67.21;99280.91;5176109;28;20065;-86
2022/11/23 11:00:18;;;;;;;0.20;0.20;;;;;;;9.16;67.15;99279.44;5148506;28;20037;-87
2022/11/23 11:02:52;;;;;;;0.20;0.20;;;;;;;9.19;68.03;99270.59;5143188;28;20049;-86
2022/11/23 11:05:48;;;;;;;0.30;0.30;;;;;;;9.31;66.37;99272.66;5141500;28;20084;-86
2022/11/23 11:08:22;;;;;;;6.05;0.60;;;;;;;9.30;66.91;99268.31;5127024;28;20130;-86
2022/11/23 11:11:10;;;;;;;0.32;0.32;;;;;;;9.29;66.37;99259.63;5128255;28;20038;-86
2022/11/23 11:13:43;;;;;;;0.50;0.50;;;;;;;9.32;65.91;99263.88;5159737;28;20038;-85
2022/11/23 11:16:50;;;;;;;0.63;0.63;;;;;;;9.37;66.50;99263.69;5131956;28;20042;-86
2022/11/23 11:19:31;;;;;;;0.38;0.38;;;;;;;9.43;66.32;99264.25;5126360;28;20112;-86
2022/11/23 11:22:23;;;;;;;0.22;0.22;;;;;;;9.53;67.08;99262.06;5126003;28;20038;-86
2022/11/23 11:24:54;;;;;;;0.30;0.30;;;;;;;9.50;65.45;99271.81;5167715;28;20041;-86
2022/11/23 11:27:28;;;;;;;1.42;1.33;;;;;;;9.52;66.62;99270.00;5147319;28;20034;-87
2022/11/23 11:30:03;;;;;;;0.65;0.65;;;;;;;9.63;66.59;99266.88;5153195;28;20594;-86
2022/11/23 11:32:58;;;;;;;0.32;0.32;;;;;;;9.68;65.29;99273.59;5152809;28;20034;-87
2022/11/23 11:35:33;;;;;;;0.30;0.30;;;;;;;9.70;65.47;99263.91;5153177;28;20077;-86
2022/11/23 11:38:23;;;;;;;0.30;0.30;;;;;;;9.74;66.35;99259.38;5158121;28;20123;-86
2022/11/23 11:40:57;;;;;;;0.20;0.20;;;;;;;9.86;66.28;99258.78;5161070;28;20030;-86
2022/11/23 11:43:40;;;;;;;0.40;0.40;;;;;;;9.86;66.56;99258.78;5145022;28;20026;-86
2022/11/23 11:46:14;;;;;;;0.52;0.52;;;;;;;9.87;65.67;99259.63;5159298;28;20104;-87
2022/11/23 11:48:51;;;;;;;0.38;0.38;;;;;;;10.00;65.67;99265.16;5142305;28;20217;-87
2022/11/23 11:51:30;;;;;;;0.20;0.20;;;;;;;9.99;65.48;99253.78;5156270;28;20066;-86
2022/11/23 11:54:12;;;;;;;0.30;0.30;;;;;;;10.00;65.61;99260.75;5160099;28;20408;-86
2022/11/23 11:56:46;;;;;;;0.38;0.38;;;;;;;10.06;65.73;99260.44;5176589;28;20080;-85
2022/11/23 11:59:46;;;;;;;0.70;0.70;;;;;;;10.12;66.13;99258.47;5146835;28;20361;-86
2022/11/23 12:02:18;;;;;;;3.03;0.82;;;;;;;10.03;65.27;99257.97;5140369;28;20097;-87
2022/11/23 12:05:01;;;;;;;3.72;1.48;;;;;;;10.12;66.26;99247.97;5147451;28;20084;-87
2022/11/23 12:07:41;;;;;;;0.20;0.20;;;;;;;10.13;65.24;99254.88;5161526;28;20035;-86